sensor_id;sensor_type;location;lat;lon;timestamp;temperature;humidity
24232;DHT22;12364;47.810;8.810;2022-11-20T00:01:23;8.30;99.90
24232;DHT22;12364;47.810;8.810;2022-11-20T00:03:51;8.30;99.90
24232;DHT22;12364;47.810;8.810;2022-11-20T00:06:19;8.30;99.90
24232;DHT22;12364;47.810;8.810;2022-11-20T00:08:46;8.20;99.90
24232;DHT22;12364;47.810;8.810;2022-11-20T00:11:21;8.10;99.90
24232;DHT22;12364;47.810;8.810;2022-11-20T00:13:49;8.00;99.90
24232;DHT22;12364;47.810;8.810;2022-11-20T00:16:19;8.00;99.90
24232;DHT22;12364;47.810;8.810;2022-11-20T00:18:46;8.00;99.90
24232;DHT22;12364;47.810;8.810;2022-11-20T00:23:40;7.90;99.90
24232;DHT22;12364;47.810;8.810;2022-11-20T00:26:09;7.90;99.90
24232;DHT22;12364;47.810;8.810;2022-11-20T00:28:36;7.90;99.90
24232;DHT22;12364;47.810;8.810;2022-11-20T05:30:45;7.90;99.90
24232;DHT22;12364;47.810;8.810;2022-11-20T05:33:12;7.80;99.90
24232;DHT22;12364;47.810;8.810;2022-11-20T05:35:39;7.70;99.90
24232;DHT22;12364;47.810;8.810;2022-11-20T05:38:06;7.70;99.90
24232;DHT22;12364;47.810;8.810;2022-11-20T05:40:33;7.70;99.90
24232;DHT22;12364;47.810;8.810;2022-11-20T05:43:00;7.70;99.90
24232;DHT22;12364;47.810;8.810;2022-11-20T05:45:27;7.60;99.90
24232;DHT22;12364;47.810;8.810;2022-11-20T05:47:57;7.60;99.90
24232;DHT22;12364;47.810;8.810;2022-11-20T05:50:24;7.50;99.90
24232;DHT22;12364;47.810;8.810;2022-11-20T05:52:51;7.60;99.90
24232;DHT22;12364;47.810;8.810;2022-11-20T05:55:18;7.50;99.90
24232;DHT22;12364;47.810;8.810;2022-11-20T05:57:45;7.50;99.90
24232;DHT22;12364;47.810;8.810;2022-11-20T06:00:13;7.60;99.90
24232;DHT22;12364;47.810;8.810;2022-11-20T06:02:40;7.40;99.90
24232;DHT22;12364;47.810;8.810;2022-11-20T06:05:07;7.30;99.90
24232;DHT22;12364;47.810;8.810;2022-11-20T06:07:34;7.20;99.90
24232;DHT22;12364;47.810;8.810;2022-11-20T06:10:01;7.10;99.90
24232;DHT22;12364;47.810;8.810;2022-11-20T06:12:30;7.10;99.90
24232;DHT22;12364;47.810;8.810;2022-11-20T06:14:57;7.20;99.90
24232;DHT22;12364;47.810;8.810;2022-11-20T06:17:24;7.10;99.90
24232;DHT22;12364;47.810;8.810;2022-11-20T06:19:51;7.20;99.90
24232;DHT22;12364;47.810;8.810;2022-11-20T06:22:18;7.10;99.90
24232;DHT22;12364;47.810;8.810;2022-11-20T06:24:45;7.30;99.90
24232;DHT22;12364;47.810;8.810;2022-11-20T06:27:12;7.40;99.90
24232;DHT22;12364;47.810;8.810;2022-11-20T06:29:39;7.30;99.90
24232;DHT22;12364;47.810;8.810;2022-11-20T06:32:06;7.40;99.90
24232;DHT22;12364;47.810;8.810;2022-11-20T06:34:33;7.50;99.90
24232;DHT22;12364;47.810;8.810;2022-11-20T06:37:00;7.60;99.90
24232;DHT22;12364;47.810;8.810;2022-11-20T06:39:27;7.70;99.90
24232;DHT22;12364;47.810;8.810;2022-11-20T06:41:54;7.70;99.90
24232;DHT22;12364;47.810;8.810;2022-11-20T06:44:25;7.70;99.90
24232;DHT22;12364;47.810;8.810;2022-11-20T06:46:52;7.80;99.90
24232;DHT22;12364;47.810;8.810;2022-11-20T06:49:19;7.80;99.90
24232;DHT22;12364;47.810;8.810;2022-11-20T06:51:46;8.10;99.90
24232;DHT22;12364;47.810;8.810;2022-11-20T06:54:14;7.80;99.90
24232;DHT22;12364;47.810;8.810;2022-11-20T06:56:40;7.80;99.90
24232;DHT22;12364;47.810;8.810;2022-11-20T06:59:07;7.90;99.90
24232;DHT22;12364;47.810;8.810;2022-11-20T07:01:35;7.80;99.90
24232;DHT22;12364;47.810;8.810;2022-11-20T07:04:02;7.90;99.90
24232;DHT22;12364;47.810;8.810;2022-11-20T07:06:30;7.70;99.90
24232;DHT22;12364;47.810;8.810;2022-11-20T07:08:57;7.80;99.90
24232;DHT22;12364;47.810;8.810;2022-11-20T07:11:24;7.90;99.90
24232;DHT22;12364;47.810;8.810;2022-11-20T07:13:51;7.90;99.90
24232;DHT22;12364;47.810;8.810;2022-11-20T07:16:18;7.90;99.90
24232;DHT22;12364;47.810;8.810;2022-11-20T07:18:45;7.90;99.90
24232;DHT22;12364;47.810;8.810;2022-11-20T07:21:16;8.30;99.90
24232;DHT22;12364;47.810;8.810;2022-11-20T07:23:43;7.90;99.90
24232;DHT22;12364;47.810;8.810;2022-11-20T07:26:11;8.00;99.90
24232;DHT22;12364;47.810;8.810;2022-11-20T07:28:38;8.10;99.90
24232;DHT22;12364;47.810;8.810;2022-11-20T07:31:05;8.10;99.90
24232;DHT22;12364;47.810;8.810;2022-11-20T07:33:33;8.20;99.90
24232;DHT22;12364;47.810;8.810;2022-11-20T07:36:01;8.10;99.90
24232;DHT22;12364;47.810;8.810;2022-11-20T07:38:28;8.20;99.90
24232;DHT22;12364;47.810;8.810;2022-11-20T07:40:58;8.20;99.90
24232;DHT22;12364;47.810;8.810;2022-11-20T07:43:28;8.30;99.90
24232;DHT22;12364;47.810;8.810;2022-11-20T07:45:55;8.30;99.90
24232;DHT22;12364;47.810;8.810;2022-11-20T07:48:23;8.30;99.90
24232;DHT22;12364;47.810;8.810;2022-11-20T07:50:53;8.40;99.90
24232;DHT22;12364;47.810;8.810;2022-11-20T07:53:20;8.40;99.90
24232;DHT22;12364;47.810;8.810;2022-11-20T07:55:48;8.50;99.90
24232;DHT22;12364;47.810;8.810;2022-11-20T07:58:15;8.60;99.90
24232;DHT22;12364;47.810;8.810;2022-11-20T08:00:42;8.60;99.90
24232;DHT22;12364;47.810;8.810;2022-11-20T08:03:09;8.60;99.90
24232;DHT22;12364;47.810;8.810;2022-11-20T08:05:36;8.80;99.90
24232;DHT22;12364;47.810;8.810;2022-11-20T08:08:03;8.60;99.90
24232;DHT22;12364;47.810;8.810;2022-11-20T08:10:31;8.60;99.90
24232;DHT22;12364;47.810;8.810;2022-11-20T08:12:57;8.70;99.90
24232;DHT22;12364;47.810;8.810;2022-11-20T08:15:47;8.60;99.90
24232;DHT22;12364;47.810;8.810;2022-11-20T08:18:14;8.70;99.90
24232;DHT22;12364;47.810;8.810;2022-11-20T08:20:58;8.70;99.90
24232;DHT22;12364;47.810;8.810;2022-11-20T08:23:27;8.70;99.90
24232;DHT22;12364;47.810;8.810;2022-11-20T08:25:54;8.80;99.90
24232;DHT22;12364;47.810;8.810;2022-11-20T08:28:21;8.80;99.90
24232;DHT22;12364;47.810;8.810;2022-11-20T08:30:49;8.80;99.90
24232;DHT22;12364;47.810;8.810;2022-11-20T08:33:17;8.80;99.90
24232;DHT22;12364;47.810;8.810;2022-11-20T08:35:44;8.80;99.90
24232;DHT22;12364;47.810;8.810;2022-11-20T08:38:12;8.90;99.90
24232;DHT22;12364;47.810;8.810;2022-11-20T08:40:39;8.90;99.90
24232;DHT22;12364;47.810;8.810;2022-11-20T08:43:05;9.10;99.90
24232;DHT22;12364;47.810;8.810;2022-11-20T08:45:32;9.30;99.90
24232;DHT22;12364;47.810;8.810;2022-11-20T08:48:01;9.00;99.90
24232;DHT22;12364;47.810;8.810;2022-11-20T08:50:29;9.10;99.90
24232;DHT22;12364;47.810;8.810;2022-11-20T08:53:05;9.10;99.90
24232;DHT22;12364;47.810;8.810;2022-11-20T08:55:32;9.10;99.90
24232;DHT22;12364;47.810;8.810;2022-11-20T08:58:03;9.10;99.90
24232;DHT22;12364;47.810;8.810;2022-11-20T09:00:30;9.20;99.90
24232;DHT22;12364;47.810;8.810;2022-11-20T09:02:57;9.20;99.90
24232;DHT22;12364;47.810;8.810;2022-11-20T09:05:25;9.40;99.90
24232;DHT22;12364;47.810;8.810;2022-11-20T09:07:55;9.30;99.90
24232;DHT22;12364;47.810;8.810;2022-11-20T09:10:22;9.30;99.90
24232;DHT22;12364;47.810;8.810;2022-11-20T09:12:51;9.30;99.90
24232;DHT22;12364;47.810;8.810;2022-11-20T09:15:18;9.30;99.90
24232;DHT22;12364;47.810;8.810;2022-11-20T09:17:52;9.40;99.90
24232;DHT22;12364;47.810;8.810;2022-11-20T09:20:19;9.40;99.90
24232;DHT22;12364;47.810;8.810;2022-11-20T09:22:47;9.50;99.90
24232;DHT22;12364;47.810;8.810;2022-11-20T09:25:14;9.60;99.90
24232;DHT22;12364;47.810;8.810;2022-11-20T09:27:41;9.60;99.90
24232;DHT22;12364;47.810;8.810;2022-11-20T09:30:13;9.70;99.90
24232;DHT22;12364;47.810;8.810;2022-11-20T09:32:40;9.70;99.90
24232;DHT22;12364;47.810;8.810;2022-11-20T09:35:08;9.70;99.90
24232;DHT22;12364;47.810;8.810;2022-11-20T09:37:35;9.60;99.90
24232;DHT22;12364;47.810;8.810;2022-11-20T09:40:02;9.60;99.90
24232;DHT22;12364;47.810;8.810;2022-11-20T09:42:44;9.60;99.90
24232;DHT22;12364;47.810;8.810;2022-11-20T09:45:35;9.70;99.90
24232;DHT22;12364;47.810;8.810;2022-11-20T09:48:14;9.60;99.90
24232;DHT22;12364;47.810;8.810;2022-11-20T09:50:45;9.60;99.90
24232;DHT22;12364;47.810;8.810;2022-11-20T09:53:24;9.60;99.90
24232;DHT22;12364;47.810;8.810;2022-11-20T09:55:55;9.30;99.90
24232;DHT22;12364;47.810;8.810;2022-11-20T09:58:44;9.40;99.90
24232;DHT22;12364;47.810;8.810;2022-11-20T10:01:12;9.40;99.90
24232;DHT22;12364;47.810;8.810;2022-11-20T10:06:41;9.60;99.90
24232;DHT22;12364;47.810;8.810;2022-11-20T10:14:16;9.50;99.90
24232;DHT22;12364;47.810;8.810;2022-11-20T10:22:20;9.40;99.90
24232;DHT22;12364;47.810;8.810;2022-11-20T10:24:43;9.30;99.90
24232;DHT22;12364;47.810;8.810;2022-11-20T10:30:00;9.50;99.90
24232;DHT22;12364;47.810;8.810;2022-11-20T10:32:38;9.80;99.90
24232;DHT22;12364;47.810;8.810;2022-11-20T10:37:54;9.60;99.90
24232;DHT22;12364;47.810;8.810;2022-11-20T10:43:08;9.60;99.90
24232;DHT22;12364;47.810;8.810;2022-11-20T10:45:40;9.70;99.90
24232;DHT22;12364;47.810;8.810;2022-11-20T10:48:10;9.70;99.90
24232;DHT22;12364;47.810;8.810;2022-11-20T10:50:40;9.70;99.90
24232;DHT22;12364;47.810;8.810;2022-11-20T10:58:25;9.80;99.90
24232;DHT22;12364;47.810;8.810;2022-11-20T11:03:40;9.80;99.90
24232;DHT22;12364;47.810;8.810;2022-11-20T11:06:15;9.80;99.90
24232;DHT22;12364;47.810;8.810;2022-11-20T11:08:44;9.80;99.90
24232;DHT22;12364;47.810;8.810;2022-11-20T11:13:46;9.70;99.90
24232;DHT22;12364;47.810;8.810;2022-11-20T11:16:20;9.90;99.90
24232;DHT22;12364;47.810;8.810;2022-11-20T11:18:47;10.00;99.90
24232;DHT22;12364;47.810;8.810;2022-11-20T11:21:21;10.10;99.90
24232;DHT22;12364;47.810;8.810;2022-11-20T11:23:48;10.10;99.90
24232;DHT22;12364;47.810;8.810;2022-11-20T11:26:39;10.10;99.90
24232;DHT22;12364;47.810;8.810;2022-11-20T11:29:17;10.10;99.90
24232;DHT22;12364;47.810;8.810;2022-11-20T11:31:44;10.00;99.90
24232;DHT22;12364;47.810;8.810;2022-11-20T11:34:12;10.10;99.90
24232;DHT22;12364;47.810;8.810;2022-11-20T11:36:39;10.10;99.90
24232;DHT22;12364;47.810;8.810;2022-11-20T11:39:10;10.10;99.90
24232;DHT22;12364;47.810;8.810;2022-11-20T11:41:38;10.10;99.90
24232;DHT22;12364;47.810;8.810;2022-11-20T11:44:21;10.30;99.90
24232;DHT22;12364;47.810;8.810;2022-11-20T11:55:37;10.30;99.90
24232;DHT22;12364;47.810;8.810;2022-11-20T12:00:51;10.40;99.90
24232;DHT22;12364;47.810;8.810;2022-11-20T12:03:24;10.50;99.90
24232;DHT22;12364;47.810;8.810;2022-11-20T12:05:55;10.60;99.90
24232;DHT22;12364;47.810;8.810;2022-11-20T12:09:10;10.60;99.90
24232;DHT22;12364;47.810;8.810;2022-11-20T12:11:20;10.70;99.90
24232;DHT22;12364;47.810;8.810;2022-11-20T12:13:58;10.70;99.90
24232;DHT22;12364;47.810;8.810;2022-11-20T12:16:36;10.70;99.90
24232;DHT22;12364;47.810;8.810;2022-11-20T12:19:07;10.70;99.90
24232;DHT22;12364;47.810;8.810;2022-11-20T12:34:37;10.80;99.90
24232;DHT22;12364;47.810;8.810;2022-11-20T12:39:52;10.80;99.90
24232;DHT22;12364;47.810;8.810;2022-11-20T12:52:53;10.90;99.90
24232;DHT22;12364;47.810;8.810;2022-11-20T12:55:25;11.00;99.90
24232;DHT22;12364;47.810;8.810;2022-11-20T12:57:59;11.00;99.90
24232;DHT22;12364;47.810;8.810;2022-11-20T13:00:27;11.10;99.90
24232;DHT22;12364;47.810;8.810;2022-11-20T13:08:19;11.30;99.90
24232;DHT22;12364;47.810;8.810;2022-11-20T13:10:51;11.30;99.90
24232;DHT22;12364;47.810;8.810;2022-11-20T13:18:27;11.40;99.90
24232;DHT22;12364;47.810;8.810;2022-11-20T13:20:57;11.30;99.90
24232;DHT22;12364;47.810;8.810;2022-11-20T13:23:25;11.30;99.90
24232;DHT22;12364;47.810;8.810;2022-11-20T13:26:02;11.20;99.90
24232;DHT22;12364;47.810;8.810;2022-11-20T13:28:30;11.20;99.90
24232;DHT22;12364;47.810;8.810;2022-11-20T13:30:57;11.30;99.90
24232;DHT22;12364;47.810;8.810;2022-11-20T13:35:59;11.40;99.90
24232;DHT22;12364;47.810;8.810;2022-11-20T13:38:26;11.30;99.90
24232;DHT22;12364;47.810;8.810;2022-11-20T13:41:00;11.10;99.90
24232;DHT22;12364;47.810;8.810;2022-11-20T13:43:47;11.00;99.90
24232;DHT22;12364;47.810;8.810;2022-11-20T13:46:14;11.00;99.90
24232;DHT22;12364;47.810;8.810;2022-11-20T13:48:42;11.10;99.90
24232;DHT22;12364;47.810;8.810;2022-11-20T13:56:24;10.60;99.90
24232;DHT22;12364;47.810;8.810;2022-11-20T13:59:00;10.80;99.90
24232;DHT22;12364;47.810;8.810;2022-11-20T14:01:31;10.70;99.90
24232;DHT22;12364;47.810;8.810;2022-11-20T14:04:00;11.00;99.90
24232;DHT22;12364;47.810;8.810;2022-11-20T14:06:33;10.70;99.90
24232;DHT22;12364;47.810;8.810;2022-11-20T14:09:01;10.50;99.90
24232;DHT22;12364;47.810;8.810;2022-11-20T14:11:29;10.50;99.90
24232;DHT22;12364;47.810;8.810;2022-11-20T14:16:27;10.50;99.90
24232;DHT22;12364;47.810;8.810;2022-11-20T14:18:56;10.50;99.90
24232;DHT22;12364;47.810;8.810;2022-11-20T14:21:25;10.50;99.90
24232;DHT22;12364;47.810;8.810;2022-11-20T14:23:53;10.50;99.90
24232;DHT22;12364;47.810;8.810;2022-11-20T14:26:20;10.40;99.90
24232;DHT22;12364;47.810;8.810;2022-11-20T14:28:48;10.50;99.90
24232;DHT22;12364;47.810;8.810;2022-11-20T14:31:23;10.40;99.90
24232;DHT22;12364;47.810;8.810;2022-11-20T14:33:51;10.30;99.90
24232;DHT22;12364;47.810;8.810;2022-11-20T14:36:22;10.40;99.90
24232;DHT22;12364;47.810;8.810;2022-11-20T14:38:50;10.50;99.90
24232;DHT22;12364;47.810;8.810;2022-11-20T14:41:22;10.50;99.90
24232;DHT22;12364;47.810;8.810;2022-11-20T14:43:54;10.60;99.90
24232;DHT22;12364;47.810;8.810;2022-11-20T14:46:22;10.80;99.90
24232;DHT22;12364;47.810;8.810;2022-11-20T14:48:51;10.70;99.90
24232;DHT22;12364;47.810;8.810;2022-11-20T14:56:55;10.60;99.50
24232;DHT22;12364;47.810;8.810;2022-11-20T14:59:26;10.70;99.90
24232;DHT22;12364;47.810;8.810;2022-11-20T15:01:56;10.70;99.90
24232;DHT22;12364;47.810;8.810;2022-11-20T15:04:24;10.70;99.60
24232;DHT22;12364;47.810;8.810;2022-11-20T15:06:53;10.70;99.90
24232;DHT22;12364;47.810;8.810;2022-11-20T15:09:20;11.00;99.90
24232;DHT22;12364;47.810;8.810;2022-11-20T15:11:52;10.70;99.20
24232;DHT22;12364;47.810;8.810;2022-11-20T15:14:20;10.70;99.20
24232;DHT22;12364;47.810;8.810;2022-11-20T15:16:47;10.90;99.80
24232;DHT22;12364;47.810;8.810;2022-11-20T15:19:21;10.70;99.90
24232;DHT22;12364;47.810;8.810;2022-11-20T15:21:49;10.70;99.90
24232;DHT22;12364;47.810;8.810;2022-11-20T15:24:16;10.70;99.90
24232;DHT22;12364;47.810;8.810;2022-11-20T15:26:43;10.70;99.90
24232;DHT22;12364;47.810;8.810;2022-11-20T15:29:11;10.70;99.90
24232;DHT22;12364;47.810;8.810;2022-11-20T15:31:39;10.80;99.90
24232;DHT22;12364;47.810;8.810;2022-11-20T15:34:13;10.70;99.90
24232;DHT22;12364;47.810;8.810;2022-11-20T15:36:41;10.70;99.90
24232;DHT22;12364;47.810;8.810;2022-11-20T15:39:08;10.60;99.90
24232;DHT22;12364;47.810;8.810;2022-11-20T15:41:35;10.50;99.90
24232;DHT22;12364;47.810;8.810;2022-11-20T15:44:03;10.50;99.90
24232;DHT22;12364;47.810;8.810;2022-11-20T15:46:31;10.50;99.90
24232;DHT22;12364;47.810;8.810;2022-11-20T15:49:05;10.50;99.90
24232;DHT22;12364;47.810;8.810;2022-11-20T15:51:33;10.50;99.90
24232;DHT22;12364;47.810;8.810;2022-11-20T15:54:01;10.50;99.90
24232;DHT22;12364;47.810;8.810;2022-11-20T15:56:30;10.60;99.90
24232;DHT22;12364;47.810;8.810;2022-11-20T15:58:59;10.70;99.90
24232;DHT22;12364;47.810;8.810;2022-11-20T16:01:26;10.50;99.90
24232;DHT22;12364;47.810;8.810;2022-11-20T16:03:53;10.40;99.90
24232;DHT22;12364;47.810;8.810;2022-11-20T16:06:20;10.40;99.90
24232;DHT22;12364;47.810;8.810;2022-11-20T16:08:47;10.40;99.90
24232;DHT22;12364;47.810;8.810;2022-11-20T16:11:15;10.40;99.90
24232;DHT22;12364;47.810;8.810;2022-11-20T16:13:43;10.30;99.90
24232;DHT22;12364;47.810;8.810;2022-11-20T16:16:29;10.30;99.90
24232;DHT22;12364;47.810;8.810;2022-11-20T16:18:57;10.30;99.90
24232;DHT22;12364;47.810;8.810;2022-11-20T16:21:24;10.30;99.90
24232;DHT22;12364;47.810;8.810;2022-11-20T16:24:01;10.30;99.90
24232;DHT22;12364;47.810;8.810;2022-11-20T16:26:28;10.20;99.90
24232;DHT22;12364;47.810;8.810;2022-11-20T16:28:56;10.20;99.90
24232;DHT22;12364;47.810;8.810;2022-11-20T16:31:23;10.20;99.90
24232;DHT22;12364;47.810;8.810;2022-11-20T16:33:53;10.20;99.90
24232;DHT22;12364;47.810;8.810;2022-11-20T16:36:21;10.10;99.90
24232;DHT22;12364;47.810;8.810;2022-11-20T16:38:51;10.10;99.90
24232;DHT22;12364;47.810;8.810;2022-11-20T16:41:19;10.00;99.90
24232;DHT22;12364;47.810;8.810;2022-11-20T16:43:50;10.00;99.90
24232;DHT22;12364;47.810;8.810;2022-11-20T16:46:18;10.00;99.90
24232;DHT22;12364;47.810;8.810;2022-11-20T16:48:51;10.10;99.90
24232;DHT22;12364;47.810;8.810;2022-11-20T16:51:18;10.10;99.90
24232;DHT22;12364;47.810;8.810;2022-11-20T16:53:45;10.10;99.90
24232;DHT22;12364;47.810;8.810;2022-11-20T16:56:14;10.10;99.90
24232;DHT22;12364;47.810;8.810;2022-11-20T16:58:44;10.00;99.90
24232;DHT22;12364;47.810;8.810;2022-11-20T17:01:13;10.10;99.90
24232;DHT22;12364;47.810;8.810;2022-11-20T17:03:40;10.00;99.90
24232;DHT22;12364;47.810;8.810;2022-11-20T17:06:14;10.00;99.90
24232;DHT22;12364;47.810;8.810;2022-11-20T17:08:41;10.00;99.90
24232;DHT22;12364;47.810;8.810;2022-11-20T17:11:09;10.00;99.90
24232;DHT22;12364;47.810;8.810;2022-11-20T17:13:37;10.00;99.90
24232;DHT22;12364;47.810;8.810;2022-11-20T17:16:07;9.90;99.90
24232;DHT22;12364;47.810;8.810;2022-11-20T17:18:34;9.90;99.90
24232;DHT22;12364;47.810;8.810;2022-11-20T17:21:01;10.00;99.90
24232;DHT22;12364;47.810;8.810;2022-11-20T17:23:32;10.00;99.90
24232;DHT22;12364;47.810;8.810;2022-11-20T17:28:32;10.00;99.90
24232;DHT22;12364;47.810;8.810;2022-11-20T17:31:06;9.90;99.90
24232;DHT22;12364;47.810;8.810;2022-11-20T17:33:34;9.90;99.90
24232;DHT22;12364;47.810;8.810;2022-11-20T17:36:02;9.90;99.90
24232;DHT22;12364;47.810;8.810;2022-11-20T17:38:29;9.90;99.90
24232;DHT22;12364;47.810;8.810;2022-11-20T17:41:03;9.80;99.90
24232;DHT22;12364;47.810;8.810;2022-11-20T17:43:30;9.90;99.90
24232;DHT22;12364;47.810;8.810;2022-11-20T17:46:11;9.80;99.90
24232;DHT22;12364;47.810;8.810;2022-11-20T17:48:38;9.80;99.90
24232;DHT22;12364;47.810;8.810;2022-11-20T17:51:10;9.80;99.90
24232;DHT22;12364;47.810;8.810;2022-11-20T17:53:39;9.80;99.90
24232;DHT22;12364;47.810;8.810;2022-11-20T17:56:06;9.80;99.90
24232;DHT22;12364;47.810;8.810;2022-11-20T17:58:52;9.90;99.90
24232;DHT22;12364;47.810;8.810;2022-11-20T18:01:19;9.80;99.90
24232;DHT22;12364;47.810;8.810;2022-11-20T18:03:47;9.80;99.90
24232;DHT22;12364;47.810;8.810;2022-11-20T18:06:15;9.70;99.90
24232;DHT22;12364;47.810;8.810;2022-11-20T18:08:42;9.70;99.90
24232;DHT22;12364;47.810;8.810;2022-11-20T18:13:37;9.70;99.90
24232;DHT22;12364;47.810;8.810;2022-11-20T18:16:23;9.70;99.90
24232;DHT22;12364;47.810;8.810;2022-11-20T18:18:52;9.70;99.90
24232;DHT22;12364;47.810;8.810;2022-11-20T18:21:19;9.70;99.90
24232;DHT22;12364;47.810;8.810;2022-11-20T18:23:46;9.70;99.90
24232;DHT22;12364;47.810;8.810;2022-11-20T18:26:14;9.60;99.90
24232;DHT22;12364;47.810;8.810;2022-11-20T18:28:41;9.60;99.90
24232;DHT22;12364;47.810;8.810;2022-11-20T18:31:08;9.70;99.90
24232;DHT22;12364;47.810;8.810;2022-11-20T18:33:35;9.60;99.90
24232;DHT22;12364;47.810;8.810;2022-11-20T18:36:18;9.60;99.90
24232;DHT22;12364;47.810;8.810;2022-11-20T18:38:47;9.50;99.90
24232;DHT22;12364;47.810;8.810;2022-11-20T18:41:15;9.60;99.90
24232;DHT22;12364;47.810;8.810;2022-11-20T18:44:02;9.60;99.90
24232;DHT22;12364;47.810;8.810;2022-11-20T18:46:49;9.60;99.90
24232;DHT22;12364;47.810;8.810;2022-11-20T18:49:16;9.60;99.90
24232;DHT22;12364;47.810;8.810;2022-11-20T18:51:43;9.60;99.90
24232;DHT22;12364;47.810;8.810;2022-11-20T18:54:11;9.80;99.90
24232;DHT22;12364;47.810;8.810;2022-11-20T18:56:38;9.70;99.90
24232;DHT22;12364;47.810;8.810;2022-11-20T18:59:06;9.80;99.90
24232;DHT22;12364;47.810;8.810;2022-11-20T19:01:34;9.80;99.90
24232;DHT22;12364;47.810;8.810;2022-11-20T19:04:10;9.90;99.90
24232;DHT22;12364;47.810;8.810;2022-11-20T19:06:38;9.90;99.90
24232;DHT22;12364;47.810;8.810;2022-11-20T19:09:09;9.90;99.90
24232;DHT22;12364;47.810;8.810;2022-11-20T19:11:37;9.90;99.90
24232;DHT22;12364;47.810;8.810;2022-11-20T19:14:05;9.80;99.90
24232;DHT22;12364;47.810;8.810;2022-11-20T19:16:32;9.70;99.90
24232;DHT22;12364;47.810;8.810;2022-11-20T19:19:00;9.70;99.90
24232;DHT22;12364;47.810;8.810;2022-11-20T19:21:29;9.70;99.90
24232;DHT22;12364;47.810;8.810;2022-11-20T19:23:57;9.70;99.90
24232;DHT22;12364;47.810;8.810;2022-11-20T19:26:25;9.60;99.90
24232;DHT22;12364;47.810;8.810;2022-11-20T19:28:52;9.40;99.90
24232;DHT22;12364;47.810;8.810;2022-11-20T19:31:20;9.30;99.90
24232;DHT22;12364;47.810;8.810;2022-11-20T19:33:53;9.30;99.90
24232;DHT22;12364;47.810;8.810;2022-11-20T19:36:25;9.30;99.90
24232;DHT22;12364;47.810;8.810;2022-11-20T19:38:53;9.20;99.90
24232;DHT22;12364;47.810;8.810;2022-11-20T19:41:21;9.10;99.90
24232;DHT22;12364;47.810;8.810;2022-11-20T19:43:48;9.10;99.90
24232;DHT22;12364;47.810;8.810;2022-11-20T19:46:16;9.00;99.90
24232;DHT22;12364;47.810;8.810;2022-11-20T19:48:44;8.90;99.90
24232;DHT22;12364;47.810;8.810;2022-11-20T19:51:12;8.90;99.90
24232;DHT22;12364;47.810;8.810;2022-11-20T19:53:40;9.00;99.90
24232;DHT22;12364;47.810;8.810;2022-11-20T19:56:07;8.90;99.90
24232;DHT22;12364;47.810;8.810;2022-11-20T19:58:34;8.50;99.90
24232;DHT22;12364;47.810;8.810;2022-11-20T20:01:08;8.20;99.90
24232;DHT22;12364;47.810;8.810;2022-11-20T20:03:36;7.90;99.90
24232;DHT22;12364;47.810;8.810;2022-11-20T20:06:05;8.10;99.90
24232;DHT22;12364;47.810;8.810;2022-11-20T20:08:32;8.20;99.90
24232;DHT22;12364;47.810;8.810;2022-11-20T20:10:59;8.40;99.90
24232;DHT22;12364;47.810;8.810;2022-11-20T20:13:35;8.30;99.90
24232;DHT22;12364;47.810;8.810;2022-11-20T20:16:04;8.30;99.90
24232;DHT22;12364;47.810;8.810;2022-11-20T20:18:31;8.20;99.90
24232;DHT22;12364;47.810;8.810;2022-11-20T20:21:02;8.10;99.90
24232;DHT22;12364;47.810;8.810;2022-11-20T20:23:30;8.10;99.90
24232;DHT22;12364;47.810;8.810;2022-11-20T20:25:57;8.10;99.90
24232;DHT22;12364;47.810;8.810;2022-11-20T20:28:25;8.00;99.90
24232;DHT22;12364;47.810;8.810;2022-11-20T20:30:52;8.00;99.90
24232;DHT22;12364;47.810;8.810;2022-11-20T20:33:20;8.10;99.90
24232;DHT22;12364;47.810;8.810;2022-11-20T20:35:47;7.80;99.90
24232;DHT22;12364;47.810;8.810;2022-11-20T20:38:14;7.70;99.90
24232;DHT22;12364;47.810;8.810;2022-11-20T20:40:47;7.60;99.90
24232;DHT22;12364;47.810;8.810;2022-11-20T20:43:17;7.40;99.90
24232;DHT22;12364;47.810;8.810;2022-11-20T20:45:45;7.30;99.90
24232;DHT22;12364;47.810;8.810;2022-11-20T20:48:13;7.40;99.90
24232;DHT22;12364;47.810;8.810;2022-11-20T20:50:41;7.30;99.90
24232;DHT22;12364;47.810;8.810;2022-11-20T20:53:08;7.20;99.90
24232;DHT22;12364;47.810;8.810;2022-11-20T20:55:35;7.20;99.90
24232;DHT22;12364;47.810;8.810;2022-11-20T20:58:02;7.30;99.90
24232;DHT22;12364;47.810;8.810;2022-11-20T21:00:30;7.40;99.90
24232;DHT22;12364;47.810;8.810;2022-11-20T21:02:57;7.30;99.90
24232;DHT22;12364;47.810;8.810;2022-11-20T21:05:24;7.30;99.90
24232;DHT22;12364;47.810;8.810;2022-11-20T21:07:51;7.00;99.90
24232;DHT22;12364;47.810;8.810;2022-11-20T21:10:36;7.00;99.90
24232;DHT22;12364;47.810;8.810;2022-11-20T21:13:04;6.90;99.90
24232;DHT22;12364;47.810;8.810;2022-11-20T21:15:31;6.90;99.90
24232;DHT22;12364;47.810;8.810;2022-11-20T21:17:58;6.80;99.90
24232;DHT22;12364;47.810;8.810;2022-11-20T21:20:24;6.80;99.90
24232;DHT22;12364;47.810;8.810;2022-11-20T21:23:10;6.80;99.90
24232;DHT22;12364;47.810;8.810;2022-11-20T21:25:37;7.00;99.90
24232;DHT22;12364;47.810;8.810;2022-11-20T21:28:05;7.10;99.90
24232;DHT22;12364;47.810;8.810;2022-11-20T21:30:32;7.10;99.90
24232;DHT22;12364;47.810;8.810;2022-11-20T21:32:59;7.10;99.90
24232;DHT22;12364;47.810;8.810;2022-11-20T21:35:26;7.10;99.90
24232;DHT22;12364;47.810;8.810;2022-11-20T21:37:54;7.10;99.90
24232;DHT22;12364;47.810;8.810;2022-11-20T21:40:21;7.10;99.90
24232;DHT22;12364;47.810;8.810;2022-11-20T21:42:48;7.00;99.90
24232;DHT22;12364;47.810;8.810;2022-11-20T21:45:15;7.10;99.90
24232;DHT22;12364;47.810;8.810;2022-11-20T21:47:42;7.10;99.90
24232;DHT22;12364;47.810;8.810;2022-11-20T21:50:10;7.10;99.90
24232;DHT22;12364;47.810;8.810;2022-11-20T21:52:37;7.00;99.90
24232;DHT22;12364;47.810;8.810;2022-11-20T21:55:04;7.00;99.90
24232;DHT22;12364;47.810;8.810;2022-11-20T21:57:34;7.00;99.90
24232;DHT22;12364;47.810;8.810;2022-11-20T22:00:02;7.20;99.90
24232;DHT22;12364;47.810;8.810;2022-11-20T22:02:30;7.30;99.90
24232;DHT22;12364;47.810;8.810;2022-11-20T22:04:57;7.20;99.90
24232;DHT22;12364;47.810;8.810;2022-11-20T22:07:24;7.20;99.90
24232;DHT22;12364;47.810;8.810;2022-11-20T22:09:51;7.10;99.90
24232;DHT22;12364;47.810;8.810;2022-11-20T22:12:18;7.20;99.90
24232;DHT22;12364;47.810;8.810;2022-11-20T22:14:45;7.30;99.90
24232;DHT22;12364;47.810;8.810;2022-11-20T22:17:12;7.60;99.90
24232;DHT22;12364;47.810;8.810;2022-11-20T22:19:39;7.40;99.90
24232;DHT22;12364;47.810;8.810;2022-11-20T22:22:06;7.60;99.90
24232;DHT22;12364;47.810;8.810;2022-11-20T22:24:33;7.60;99.90
24232;DHT22;12364;47.810;8.810;2022-11-20T22:27:00;7.40;99.90
24232;DHT22;12364;47.810;8.810;2022-11-20T22:29:27;7.50;99.90
24232;DHT22;12364;47.810;8.810;2022-11-20T22:31:54;7.40;99.90
24232;DHT22;12364;47.810;8.810;2022-11-20T22:34:21;7.50;99.90
24232;DHT22;12364;47.810;8.810;2022-11-20T22:36:49;7.70;99.90
24232;DHT22;12364;47.810;8.810;2022-11-20T22:39:16;7.90;99.90